sensor_id;sensor_type;location;lat;lon;timestamp;pressure;altitude;pressure_sealevel;temperature;humidity
49709;BME280;35601;55.902;13.606;2023-08-21T00:00:12;101243.91;;;11.35;80.73
49709;BME280;35601;55.902;13.606;2023-08-21T00:02:36;101243.28;;;11.34;80.97
49709;BME280;35601;55.902;13.606;2023-08-21T00:05:01;101242.42;;;11.40;80.80
49709;BME280;35601;55.902;13.606;2023-08-21T00:07:26;101239.27;;;11.20;81.48
49709;BME280;35601;55.902;13.606;2023-08-21T00:09:52;101240.86;;;11.37;81.72
49709;BME280;35601;55.902;13.606;2023-08-21T00:12:17;101240.53;;;11.24;81.26
49709;BME280;35601;55.902;13.606;2023-08-21T00:14:42;101241.74;;;11.67;81.00
49709;BME280;35601;55.902;13.606;2023-08-21T00:17:08;101243.04;;;11.13;81.03
49709;BME280;35601;55.902;13.606;2023-08-21T00:19:33;101242.65;;;11.72;79.83
49709;BME280;35601;55.902;13.606;2023-08-21T00:22:00;101246.39;;;11.25;79.13
49709;BME280;35601;55.902;13.606;2023-08-21T00:24:23;101242.69;;;11.25;78.74
49709;BME280;35601;55.902;13.606;2023-08-21T00:26:48;101240.37;;;11.19;78.51
49709;BME280;35601;55.902;13.606;2023-08-21T00:29:14;101238.60;;;11.13;78.51
49709;BME280;35601;55.902;13.606;2023-08-21T00:31:39;101237.91;;;11.21;80.09
49709;BME280;35601;55.902;13.606;2023-08-21T00:34:04;101236.82;;;11.15;80.77
49709;BME280;35601;55.902;13.606;2023-08-21T00:36:29;101237.96;;;10.91;81.01
49709;BME280;35601;55.902;13.606;2023-08-21T00:38:55;101238.26;;;10.94;81.08
49709;BME280;35601;55.902;13.606;2023-08-21T00:41:20;101238.16;;;10.96;81.28
49709;BME280;35601;55.902;13.606;2023-08-21T00:43:45;101237.68;;;11.02;81.21
49709;BME280;35601;55.902;13.606;2023-08-21T00:46:10;101238.39;;;11.22;81.40
49709;BME280;35601;55.902;13.606;2023-08-21T00:48:36;101241.48;;;11.01;81.40
49709;BME280;35601;55.902;13.606;2023-08-21T00:51:00;101242.27;;;10.96;81.55
49709;BME280;35601;55.902;13.606;2023-08-21T00:53:26;101240.35;;;10.85;81.81
49709;BME280;35601;55.902;13.606;2023-08-21T00:55:51;101241.45;;;10.89;81.76
49709;BME280;35601;55.902;13.606;2023-08-21T00:58:17;101241.71;;;10.94;81.54
49709;BME280;35601;55.902;13.606;2023-08-21T01:00:41;101237.90;;;10.93;81.68
49709;BME280;35601;55.902;13.606;2023-08-21T01:03:06;101232.76;;;11.24;80.92
49709;BME280;35601;55.902;13.606;2023-08-21T01:05:32;101228.86;;;10.97;80.06
49709;BME280;35601;55.902;13.606;2023-08-21T01:08:02;101227.19;;;10.96;79.44
49709;BME280;35601;55.902;13.606;2023-08-21T01:10:29;101224.88;;;10.92;79.20
49709;BME280;35601;55.902;13.606;2023-08-21T01:12:52;101222.30;;;11.12;78.95
49709;BME280;35601;55.902;13.606;2023-08-21T01:15:13;101216.78;;;10.82;78.67
49709;BME280;35601;55.902;13.606;2023-08-21T01:17:38;101216.35;;;10.75;78.41
49709;BME280;35601;55.902;13.606;2023-08-21T01:20:05;101213.52;;;10.96;78.43
49709;BME280;35601;55.902;13.606;2023-08-21T01:22:35;101211.65;;;10.66;78.89
49709;BME280;35601;55.902;13.606;2023-08-21T01:24:53;101210.91;;;10.60;79.69
49709;BME280;35601;55.902;13.606;2023-08-21T01:27:18;101210.32;;;10.79;80.50
49709;BME280;35601;55.902;13.606;2023-08-21T01:29:43;101208.54;;;10.54;81.19
49709;BME280;35601;55.902;13.606;2023-08-21T01:32:12;101207.28;;;10.76;81.38
49709;BME280;35601;55.902;13.606;2023-08-21T01:34:34;101207.14;;;10.54;81.33
49709;BME280;35601;55.902;13.606;2023-08-21T01:36:59;101206.09;;;10.76;81.65
49709;BME280;35601;55.902;13.606;2023-08-21T01:39:25;101208.64;;;10.74;81.65
49709;BME280;35601;55.902;13.606;2023-08-21T01:41:49;101210.26;;;10.54;81.77
49709;BME280;35601;55.902;13.606;2023-08-21T01:44:15;101209.58;;;10.55;81.74
49709;BME280;35601;55.902;13.606;2023-08-21T01:46:40;101210.51;;;10.59;81.75
49709;BME280;35601;55.902;13.606;2023-08-21T01:49:06;101211.81;;;10.83;81.82
49709;BME280;35601;55.902;13.606;2023-08-21T01:51:31;101215.17;;;11.10;81.15
49709;BME280;35601;55.902;13.606;2023-08-21T01:53:57;101218.04;;;10.88;80.57
49709;BME280;35601;55.902;13.606;2023-08-21T01:56:22;101218.68;;;10.60;80.53
49709;BME280;35601;55.902;13.606;2023-08-21T01:58:47;101219.66;;;10.51;81.12
49709;BME280;35601;55.902;13.606;2023-08-21T02:01:12;101221.56;;;11.04;81.13
49709;BME280;35601;55.902;13.606;2023-08-21T02:03:37;101223.52;;;11.06;81.21
49709;BME280;35601;55.902;13.606;2023-08-21T02:06:03;101224.52;;;10.60;80.73
49709;BME280;35601;55.902;13.606;2023-08-21T02:08:32;101225.86;;;10.80;80.23
49709;BME280;35601;55.902;13.606;2023-08-21T02:10:53;101227.24;;;10.49;80.21
49709;BME280;35601;55.902;13.606;2023-08-21T02:13:19;101224.69;;;10.46;80.55
49709;BME280;35601;55.902;13.606;2023-08-21T02:15:43;101224.08;;;10.70;80.32
49709;BME280;35601;55.902;13.606;2023-08-21T02:18:08;101226.51;;;10.41;79.93
49709;BME280;35601;55.902;13.606;2023-08-21T02:20:34;101228.10;;;10.62;79.65
49709;BME280;35601;55.902;13.606;2023-08-21T02:22:59;101224.51;;;10.33;79.52
49709;BME280;35601;55.902;13.606;2023-08-21T02:25:24;101223.26;;;10.54;79.41
49709;BME280;35601;55.902;13.606;2023-08-21T02:27:49;101223.49;;;10.73;79.52
49709;BME280;35601;55.902;13.606;2023-08-21T02:30:14;101221.31;;;10.22;79.68
49709;BME280;35601;55.902;13.606;2023-08-21T02:32:40;101223.54;;;10.63;80.86
49709;BME280;35601;55.902;13.606;2023-08-21T02:35:05;101218.87;;;10.17;80.93
49709;BME280;35601;55.902;13.606;2023-08-21T02:37:30;101221.72;;;10.62;81.22
49709;BME280;35601;55.902;13.606;2023-08-21T02:39:55;101222.25;;;10.46;82.43
49709;BME280;35601;55.902;13.606;2023-08-21T02:42:20;101221.13;;;10.52;82.48
49709;BME280;35601;55.902;13.606;2023-08-21T02:44:45;101218.41;;;10.09;82.24
49709;BME280;35601;55.902;13.606;2023-08-21T02:47:11;101219.17;;;10.57;81.33
49709;BME280;35601;55.902;13.606;2023-08-21T02:49:36;101221.84;;;10.57;81.63
49709;BME280;35601;55.902;13.606;2023-08-21T02:52:01;101222.00;;;10.57;81.82
49709;BME280;35601;55.902;13.606;2023-08-21T02:54:26;101219.79;;;10.51;82.62
49709;BME280;35601;55.902;13.606;2023-08-21T02:56:51;101215.80;;;10.30;82.61
49709;BME280;35601;55.902;13.606;2023-08-21T02:59:17;101216.43;;;10.57;82.69
49709;BME280;35601;55.902;13.606;2023-08-21T03:01:42;101218.64;;;10.59;82.82
49709;BME280;35601;55.902;13.606;2023-08-21T03:04:07;101223.76;;;10.30;83.01
49709;BME280;35601;55.902;13.606;2023-08-21T03:06:32;101225.77;;;10.35;83.07
49709;BME280;35601;55.902;13.606;2023-08-21T03:08:57;101226.44;;;10.61;83.06
49709;BME280;35601;55.902;13.606;2023-08-21T03:11:22;101230.71;;;10.65;82.43
49709;BME280;35601;55.902;13.606;2023-08-21T03:13:48;101230.63;;;10.38;82.24
49709;BME280;35601;55.902;13.606;2023-08-21T03:16:13;101228.06;;;10.57;82.57
49709;BME280;35601;55.902;13.606;2023-08-21T03:21:03;101225.73;;;10.39;81.92
49709;BME280;35601;55.902;13.606;2023-08-21T03:23:28;101226.70;;;10.64;81.32
49709;BME280;35601;55.902;13.606;2023-08-21T03:25:54;101229.09;;;10.38;80.88
49709;BME280;35601;55.902;13.606;2023-08-21T03:28:19;101228.31;;;10.53;80.79
49709;BME280;35601;55.902;13.606;2023-08-21T03:30:44;101229.37;;;10.26;80.68
49709;BME280;35601;55.902;13.606;2023-08-21T03:33:09;101226.63;;;10.22;80.73
49709;BME280;35601;55.902;13.606;2023-08-21T03:35:35;101227.88;;;10.17;80.79
49709;BME280;35601;55.902;13.606;2023-08-21T03:38:00;101226.81;;;10.14;80.79
49709;BME280;35601;55.902;13.606;2023-08-21T03:40:25;101226.59;;;10.31;81.73
49709;BME280;35601;55.902;13.606;2023-08-21T03:42:50;101226.37;;;10.33;81.70
49709;BME280;35601;55.902;13.606;2023-08-21T03:45:16;101226.05;;;10.33;81.66
49709;BME280;35601;55.902;13.606;2023-08-21T03:47:41;101224.39;;;10.07;82.07
49709;BME280;35601;55.902;13.606;2023-08-21T03:50:06;101224.57;;;10.23;82.74
49709;BME280;35601;55.902;13.606;2023-08-21T03:52:31;101220.38;;;10.30;82.74
49709;BME280;35601;55.902;13.606;2023-08-21T03:54:56;101216.16;;;10.33;82.27
49709;BME280;35601;55.902;13.606;2023-08-21T03:57:22;101216.56;;;10.23;83.09
49709;BME280;35601;55.902;13.606;2023-08-21T03:59:47;101218.26;;;10.49;82.70
49709;BME280;35601;55.902;13.606;2023-08-21T04:02:12;101219.31;;;10.05;82.53
49709;BME280;35601;55.902;13.606;2023-08-21T04:04:37;101220.47;;;10.31;82.26
49709;BME280;35601;55.902;13.606;2023-08-21T04:07:02;101218.76;;;10.30;81.85
49709;BME280;35601;55.902;13.606;2023-08-21T04:09:28;101216.09;;;10.27;81.77
49709;BME280;35601;55.902;13.606;2023-08-21T04:11:53;101214.95;;;10.41;83.03
49709;BME280;35601;55.902;13.606;2023-08-21T04:14:18;101213.83;;;9.82;83.06
49709;BME280;35601;55.902;13.606;2023-08-21T04:16:43;101213.13;;;10.18;82.99
49709;BME280;35601;55.902;13.606;2023-08-21T04:19:08;101210.80;;;10.43;83.34
49709;BME280;35601;55.902;13.606;2023-08-21T04:21:34;101213.79;;;10.42;83.84
49709;BME280;35601;55.902;13.606;2023-08-21T04:23:59;101210.85;;;9.05;83.79
49709;BME280;35601;55.902;13.606;2023-08-21T04:26:24;101213.38;;;10.43;83.63
49709;BME280;35601;55.902;13.606;2023-08-21T04:28:49;101212.96;;;10.61;84.40
49709;BME280;35601;55.902;13.606;2023-08-21T04:31:15;101212.68;;;10.68;84.40
49709;BME280;35601;55.902;13.606;2023-08-21T04:33:40;101212.78;;;10.49;83.98
49709;BME280;35601;55.902;13.606;2023-08-21T04:36:06;101217.83;;;10.53;83.97
49709;BME280;35601;55.902;13.606;2023-08-21T04:38:31;101216.58;;;10.33;84.11
49709;BME280;35601;55.902;13.606;2023-08-21T04:41:05;101215.12;;;10.35;84.22
49709;BME280;35601;55.902;13.606;2023-08-21T04:43:22;101217.10;;;10.28;85.53
49709;BME280;35601;55.902;13.606;2023-08-21T04:45:48;101217.33;;;10.62;85.77
49709;BME280;35601;55.902;13.606;2023-08-21T04:48:13;101216.87;;;10.73;85.81
49709;BME280;35601;55.902;13.606;2023-08-21T04:50:38;101215.66;;;10.82;85.80
49709;BME280;35601;55.902;13.606;2023-08-21T04:53:03;101215.31;;;10.68;86.02
49709;BME280;35601;55.902;13.606;2023-08-21T04:55:29;101214.97;;;11.02;86.18
49709;BME280;35601;55.902;13.606;2023-08-21T04:57:54;101217.68;;;10.92;86.31
49709;BME280;35601;55.902;13.606;2023-08-21T05:00:19;101218.10;;;11.03;86.52
49709;BME280;35601;55.902;13.606;2023-08-21T05:02:45;101221.61;;;11.14;87.02
49709;BME280;35601;55.902;13.606;2023-08-21T05:05:10;101222.94;;;11.19;88.07
49709;BME280;35601;55.902;13.606;2023-08-21T05:07:36;101227.41;;;11.41;88.22
49709;BME280;35601;55.902;13.606;2023-08-21T05:10:01;101223.09;;;11.58;88.35
49709;BME280;35601;55.902;13.606;2023-08-21T05:12:26;101223.81;;;11.72;88.80
49709;BME280;35601;55.902;13.606;2023-08-21T05:14:51;101230.37;;;11.69;89.15
49709;BME280;35601;55.902;13.606;2023-08-21T05:17:17;101233.16;;;12.09;89.57
49709;BME280;35601;55.902;13.606;2023-08-21T05:19:42;101235.24;;;11.80;90.12
49709;BME280;35601;55.902;13.606;2023-08-21T05:22:08;101237.29;;;12.24;90.26
49709;BME280;35601;55.902;13.606;2023-08-21T05:24:33;101233.11;;;12.17;90.78
49709;BME280;35601;55.902;13.606;2023-08-21T05:26:59;101236.15;;;12.61;90.91
49709;BME280;35601;55.902;13.606;2023-08-21T05:29:24;101236.32;;;12.54;91.01
49709;BME280;35601;55.902;13.606;2023-08-21T05:31:50;101234.29;;;12.73;91.39
49709;BME280;35601;55.902;13.606;2023-08-21T05:34:16;101235.98;;;12.94;91.50
49709;BME280;35601;55.902;13.606;2023-08-21T05:36:41;101233.40;;;12.59;92.37
49709;BME280;35601;55.902;13.606;2023-08-21T05:39:07;101234.79;;;12.80;92.79
49709;BME280;35601;55.902;13.606;2023-08-21T05:41:32;101234.43;;;13.51;93.16
49709;BME280;35601;55.902;13.606;2023-08-21T05:43:57;101235.23;;;13.58;93.96
49709;BME280;35601;55.902;13.606;2023-08-21T05:46:23;101237.20;;;13.64;93.86
49709;BME280;35601;55.902;13.606;2023-08-21T05:48:48;101238.52;;;13.44;93.98
49709;BME280;35601;55.902;13.606;2023-08-21T05:51:13;101238.92;;;13.66;93.86
49709;BME280;35601;55.902;13.606;2023-08-21T05:53:39;101238.74;;;13.80;94.77
49709;BME280;35601;55.902;13.606;2023-08-21T05:56:04;101240.06;;;14.33;95.30
49709;BME280;35601;55.902;13.606;2023-08-21T05:58:30;101242.48;;;14.43;94.97
49709;BME280;35601;55.902;13.606;2023-08-21T06:00:55;101239.38;;;14.38;94.80
49709;BME280;35601;55.902;13.606;2023-08-21T06:03:21;101236.43;;;14.76;94.12
49709;BME280;35601;55.902;13.606;2023-08-21T06:05:47;101235.50;;;14.89;92.94
49709;BME280;35601;55.902;13.606;2023-08-21T06:08:11;101234.05;;;15.08;91.28
49709;BME280;35601;55.902;13.606;2023-08-21T06:10:37;101240.72;;;15.44;90.71
49709;BME280;35601;55.902;13.606;2023-08-21T06:13:02;101241.31;;;15.73;89.53
49709;BME280;35601;55.902;13.606;2023-08-21T06:15:28;101238.33;;;15.41;87.97
49709;BME280;35601;55.902;13.606;2023-08-21T06:17:53;101239.02;;;15.70;87.58
49709;BME280;35601;55.902;13.606;2023-08-21T06:20:18;101238.85;;;15.63;87.66
49709;BME280;35601;55.902;13.606;2023-08-21T06:22:44;101235.74;;;16.06;89.52
49709;BME280;35601;55.902;13.606;2023-08-21T06:25:09;101237.57;;;16.37;87.74
49709;BME280;35601;55.902;13.606;2023-08-21T06:27:34;101239.36;;;16.50;86.23
49709;BME280;35601;55.902;13.606;2023-08-21T06:30:00;101241.75;;;16.72;84.46
49709;BME280;35601;55.902;13.606;2023-08-21T06:32:25;101245.43;;;16.83;80.27
49709;BME280;35601;55.902;13.606;2023-08-21T06:34:50;101247.73;;;17.22;81.44
49709;BME280;35601;55.902;13.606;2023-08-21T06:37:15;101247.01;;;16.75;81.37
49709;BME280;35601;55.902;13.606;2023-08-21T06:39:40;101247.81;;;17.52;77.89
49709;BME280;35601;55.902;13.606;2023-08-21T06:42:05;101252.83;;;17.66;77.68
49709;BME280;35601;55.902;13.606;2023-08-21T06:44:31;101253.99;;;17.81;74.96
49709;BME280;35601;55.902;13.606;2023-08-21T06:46:56;101255.47;;;17.69;75.07
49709;BME280;35601;55.902;13.606;2023-08-21T06:49:22;101258.26;;;18.26;75.01
49709;BME280;35601;55.902;13.606;2023-08-21T06:51:47;101258.46;;;17.95;73.62
49709;BME280;35601;55.902;13.606;2023-08-21T06:54:13;101256.78;;;18.22;76.26
49709;BME280;35601;55.902;13.606;2023-08-21T06:56:38;101254.66;;;18.40;71.54
49709;BME280;35601;55.902;13.606;2023-08-21T06:59:03;101255.62;;;18.72;70.59
49709;BME280;35601;55.902;13.606;2023-08-21T07:01:28;101261.11;;;18.26;70.90
49709;BME280;35601;55.902;13.606;2023-08-21T07:03:54;101259.53;;;18.25;70.66
49709;BME280;35601;55.902;13.606;2023-08-21T07:06:19;101262.52;;;18.37;71.19
49709;BME280;35601;55.902;13.606;2023-08-21T07:08:45;101261.64;;;18.77;73.11
49709;BME280;35601;55.902;13.606;2023-08-21T07:11:10;101257.76;;;18.56;72.92
49709;BME280;35601;55.902;13.606;2023-08-21T07:13:35;101259.17;;;18.89;69.98
49709;BME280;35601;55.902;13.606;2023-08-21T07:16:00;101256.06;;;19.21;69.18
49709;BME280;35601;55.902;13.606;2023-08-21T07:18:26;101249.50;;;19.32;68.90
49709;BME280;35601;55.902;13.606;2023-08-21T07:20:52;101244.94;;;19.34;69.15
49709;BME280;35601;55.902;13.606;2023-08-21T07:23:16;101246.50;;;19.74;67.38
49709;BME280;35601;55.902;13.606;2023-08-21T07:25:42;101242.14;;;19.86;66.43
49709;BME280;35601;55.902;13.606;2023-08-21T07:28:06;101243.42;;;19.89;66.73
49709;BME280;35601;55.902;13.606;2023-08-21T07:30:32;101242.62;;;19.50;65.59
49709;BME280;35601;55.902;13.606;2023-08-21T07:32:57;101244.71;;;19.60;68.36
49709;BME280;35601;55.902;13.606;2023-08-21T07:35:22;101240.86;;;20.21;65.91
49709;BME280;35601;55.902;13.606;2023-08-21T07:37:48;101240.24;;;20.46;64.14
49709;BME280;35601;55.902;13.606;2023-08-21T07:40:13;101243.87;;;20.72;64.03
49709;BME280;35601;55.902;13.606;2023-08-21T07:42:39;101247.68;;;20.68;62.21
49709;BME280;35601;55.902;13.606;2023-08-21T07:45:06;101250.01;;;20.73;63.57
49709;BME280;35601;55.902;13.606;2023-08-21T07:47:29;101248.81;;;21.01;63.25
49709;BME280;35601;55.902;13.606;2023-08-21T07:49:56;101250.92;;;21.01;61.66
49709;BME280;35601;55.902;13.606;2023-08-21T07:52:20;101248.82;;;21.21;61.60
49709;BME280;35601;55.902;13.606;2023-08-21T07:54:45;101246.01;;;21.04;59.78
49709;BME280;35601;55.902;13.606;2023-08-21T07:57:11;101243.97;;;21.74;59.68
49709;BME280;35601;55.902;13.606;2023-08-21T07:59:35;101247.75;;;22.12;61.84
49709;BME280;35601;55.902;13.606;2023-08-21T08:02:00;101249.02;;;21.78;56.83
49709;BME280;35601;55.902;13.606;2023-08-21T08:04:26;101250.66;;;21.99;54.81
49709;BME280;35601;55.902;13.606;2023-08-21T08:06:51;101248.69;;;21.47;53.10
49709;BME280;35601;55.902;13.606;2023-08-21T08:09:16;101250.35;;;21.41;54.21
49709;BME280;35601;55.902;13.606;2023-08-21T08:11:41;101253.66;;;21.65;54.60
49709;BME280;35601;55.902;13.606;2023-08-21T08:14:06;101258.62;;;21.82;56.97
49709;BME280;35601;55.902;13.606;2023-08-21T08:16:31;101260.42;;;22.08;54.99
49709;BME280;35601;55.902;13.606;2023-08-21T08:18:56;101262.01;;;22.06;56.49
49709;BME280;35601;55.902;13.606;2023-08-21T08:21:21;101259.63;;;21.98;56.03
49709;BME280;35601;55.902;13.606;2023-08-21T08:23:46;101257.03;;;22.52;54.31
49709;BME280;35601;55.902;13.606;2023-08-21T08:26:11;101261.60;;;21.62;54.89
49709;BME280;35601;55.902;13.606;2023-08-21T08:28:36;101263.52;;;22.32;54.00
49709;BME280;35601;55.902;13.606;2023-08-21T08:31:01;101262.67;;;21.94;55.19
49709;BME280;35601;55.902;13.606;2023-08-21T08:33:27;101262.78;;;22.18;52.02
49709;BME280;35601;55.902;13.606;2023-08-21T08:35:52;101261.48;;;21.74;53.50
49709;BME280;35601;55.902;13.606;2023-08-21T08:38:18;101261.51;;;21.49;54.25
49709;BME280;35601;55.902;13.606;2023-08-21T08:40:45;101257.17;;;20.89;53.38
49709;BME280;35601;55.902;13.606;2023-08-21T08:43:07;101260.19;;;21.45;53.15
49709;BME280;35601;55.902;13.606;2023-08-21T08:45:33;101267.30;;;21.05;55.85
49709;BME280;35601;55.902;13.606;2023-08-21T08:47:59;101262.70;;;21.04;54.66
49709;BME280;35601;55.902;13.606;2023-08-21T08:50:23;101262.96;;;21.17;53.89
49709;BME280;35601;55.902;13.606;2023-08-21T08:52:47;101265.64;;;20.66;54.10
49709;BME280;35601;55.902;13.606;2023-08-21T08:55:12;101265.81;;;20.76;55.35
49709;BME280;35601;55.902;13.606;2023-08-21T08:57:37;101263.36;;;20.57;55.42
49709;BME280;35601;55.902;13.606;2023-08-21T09:00:03;101263.78;;;20.47;54.23
49709;BME280;35601;55.902;13.606;2023-08-21T09:02:28;101262.39;;;20.95;55.22
49709;BME280;35601;55.902;13.606;2023-08-21T09:04:53;101260.13;;;20.87;54.47
49709;BME280;35601;55.902;13.606;2023-08-21T09:07:18;101258.04;;;21.22;54.75
49709;BME280;35601;55.902;13.606;2023-08-21T09:09:46;101259.35;;;21.40;53.69
49709;BME280;35601;55.902;13.606;2023-08-21T09:12:10;101253.41;;;21.74;52.16
49709;BME280;35601;55.902;13.606;2023-08-21T09:14:34;101253.01;;;21.77;49.56
49709;BME280;35601;55.902;13.606;2023-08-21T09:17:00;101256.70;;;21.84;50.12
49709;BME280;35601;55.902;13.606;2023-08-21T09:19:24;101259.72;;;21.97;50.38
49709;BME280;35601;55.902;13.606;2023-08-21T09:21:49;101260.90;;;21.95;48.88
49709;BME280;35601;55.902;13.606;2023-08-21T09:24:14;101257.48;;;22.28;49.71
49709;BME280;35601;55.902;13.606;2023-08-21T09:26:39;101252.57;;;22.56;48.96
49709;BME280;35601;55.902;13.606;2023-08-21T09:29:04;101252.09;;;23.09;44.77
49709;BME280;35601;55.902;13.606;2023-08-21T09:31:30;101253.77;;;22.79;45.46
49709;BME280;35601;55.902;13.606;2023-08-21T09:33:56;101247.83;;;22.95;46.44
49709;BME280;35601;55.902;13.606;2023-08-21T09:36:19;101247.78;;;23.76;45.12
49709;BME280;35601;55.902;13.606;2023-08-21T09:38:45;101244.83;;;23.67;45.14
49709;BME280;35601;55.902;13.606;2023-08-21T09:41:09;101248.03;;;23.35;44.45
49709;BME280;35601;55.902;13.606;2023-08-21T09:43:41;101249.28;;;23.72;41.57
49709;BME280;35601;55.902;13.606;2023-08-21T09:45:59;101249.04;;;23.92;41.97
49709;BME280;35601;55.902;13.606;2023-08-21T09:48:26;101246.29;;;24.11;40.89
49709;BME280;35601;55.902;13.606;2023-08-21T09:50:50;101247.95;;;24.01;40.18
49709;BME280;35601;55.902;13.606;2023-08-21T09:53:15;101248.52;;;24.21;40.27
49709;BME280;35601;55.902;13.606;2023-08-21T09:55:40;101246.83;;;23.73;40.84
49709;BME280;35601;55.902;13.606;2023-08-21T09:58:05;101243.53;;;23.71;42.12
49709;BME280;35601;55.902;13.606;2023-08-21T10:00:31;101243.34;;;23.99;41.26
49709;BME280;35601;55.902;13.606;2023-08-21T10:02:59;101248.11;;;23.67;42.68
49709;BME280;35601;55.902;13.606;2023-08-21T10:05:20;101250.17;;;23.76;40.22
49709;BME280;35601;55.902;13.606;2023-08-21T10:07:47;101247.54;;;23.48;39.22
49709;BME280;35601;55.902;13.606;2023-08-21T10:10:11;101242.39;;;24.15;40.61
49709;BME280;35601;55.902;13.606;2023-08-21T10:12:35;101238.52;;;23.77;40.50
49709;BME280;35601;55.902;13.606;2023-08-21T10:15:00;101237.10;;;24.47;40.91
49709;BME280;35601;55.902;13.606;2023-08-21T10:17:25;101233.43;;;24.67;37.53
49709;BME280;35601;55.902;13.606;2023-08-21T10:19:51;101225.21;;;24.42;40.53
49709;BME280;35601;55.902;13.606;2023-08-21T10:24:40;101233.14;;;25.26;37.44
49709;BME280;35601;55.902;13.606;2023-08-21T10:27:07;101232.80;;;24.99;36.43
49709;BME280;35601;55.902;13.606;2023-08-21T10:29:30;101228.05;;;24.64;38.06
49709;BME280;35601;55.902;13.606;2023-08-21T10:32:00;101225.82;;;24.89;38.25
49709;BME280;35601;55.902;13.606;2023-08-21T10:34:20;101232.53;;;25.09;39.48
49709;BME280;35601;55.902;13.606;2023-08-21T10:39:13;101230.58;;;25.10;37.58
49709;BME280;35601;55.902;13.606;2023-08-21T10:41:36;101231.99;;;25.48;36.26
49709;BME280;35601;55.902;13.606;2023-08-21T10:44:00;101230.09;;;25.56;39.33
49709;BME280;35601;55.902;13.606;2023-08-21T10:46:25;101234.58;;;25.91;35.55
49709;BME280;35601;55.902;13.606;2023-08-21T10:48:50;101230.38;;;26.25;35.28
49709;BME280;35601;55.902;13.606;2023-08-21T10:51:16;101232.37;;;26.25;37.13
49709;BME280;35601;55.902;13.606;2023-08-21T10:53:40;101240.35;;;26.17;38.30
49709;BME280;35601;55.902;13.606;2023-08-21T10:56:06;101241.14;;;25.35;34.92
49709;BME280;35601;55.902;13.606;2023-08-21T10:58:34;101242.61;;;25.49;35.32
49709;BME280;35601;55.902;13.606;2023-08-21T11:00:57;101250.23;;;25.21;38.11
49709;BME280;35601;55.902;13.606;2023-08-21T11:03:20;101246.33;;;25.28;36.25
49709;BME280;35601;55.902;13.606;2023-08-21T11:08:10;101250.08;;;24.96;36.94
49709;BME280;35601;55.902;13.606;2023-08-21T11:10:35;101249.15;;;25.37;35.68
49709;BME280;35601;55.902;13.606;2023-08-21T11:13:00;101246.83;;;25.84;35.73
49709;BME280;35601;55.902;13.606;2023-08-21T11:15:28;101246.92;;;25.87;35.63
49709;BME280;35601;55.902;13.606;2023-08-21T11:17:53;101252.79;;;26.13;35.69
49709;BME280;35601;55.902;13.606;2023-08-21T11:20:16;101250.30;;;25.87;35.00
49709;BME280;35601;55.902;13.606;2023-08-21T11:22:41;101253.30;;;25.97;35.96
49709;BME280;35601;55.902;13.606;2023-08-21T11:25:06;101256.23;;;26.24;36.47
49709;BME280;35601;55.902;13.606;2023-08-21T11:27:31;101259.09;;;26.07;35.42
49709;BME280;35601;55.902;13.606;2023-08-21T11:29:56;101258.81;;;26.12;36.10
49709;BME280;35601;55.902;13.606;2023-08-21T11:32:22;101256.58;;;25.77;35.13
49709;BME280;35601;55.902;13.606;2023-08-21T11:34:49;101261.76;;;25.28;35.48
49709;BME280;35601;55.902;13.606;2023-08-21T11:37:11;101266.21;;;24.84;36.38
49709;BME280;35601;55.902;13.606;2023-08-21T11:39:41;101265.30;;;24.96;36.46
49709;BME280;35601;55.902;13.606;2023-08-21T11:42:01;101258.27;;;25.15;38.29
49709;BME280;35601;55.902;13.606;2023-08-21T11:44:26;101259.55;;;25.51;35.86
49709;BME280;35601;55.902;13.606;2023-08-21T11:46:51;101260.66;;;25.36;35.70
49709;BME280;35601;55.902;13.606;2023-08-21T11:49:16;101261.90;;;25.44;35.72
49709;BME280;35601;55.902;13.606;2023-08-21T11:51:41;101257.31;;;25.19;36.66
49709;BME280;35601;55.902;13.606;2023-08-21T11:54:06;101254.83;;;25.25;36.16
49709;BME280;35601;55.902;13.606;2023-08-21T11:56:31;101251.78;;;25.70;37.16
49709;BME280;35601;55.902;13.606;2023-08-21T11:58:56;101243.19;;;25.96;37.20
49709;BME280;35601;55.902;13.606;2023-08-21T12:01:22;101255.34;;;26.08;36.86
49709;BME280;35601;55.902;13.606;2023-08-21T12:03:46;101255.91;;;26.38;36.00
49709;BME280;35601;55.902;13.606;2023-08-21T12:06:12;101257.53;;;26.52;36.33
49709;BME280;35601;55.902;13.606;2023-08-21T12:08:37;101255.81;;;26.66;35.03
49709;BME280;35601;55.902;13.606;2023-08-21T12:11:01;101255.40;;;26.26;32.92
49709;BME280;35601;55.902;13.606;2023-08-21T12:13:26;101260.35;;;26.10;34.64
49709;BME280;35601;55.902;13.606;2023-08-21T12:15:51;101259.91;;;26.21;35.12
49709;BME280;35601;55.902;13.606;2023-08-21T12:18:16;101263.96;;;25.55;34.20
49709;BME280;35601;55.902;13.606;2023-08-21T12:20:41;101266.63;;;25.43;35.68
49709;BME280;35601;55.902;13.606;2023-08-21T12:23:06;101269.25;;;25.54;35.85
49709;BME280;35601;55.902;13.606;2023-08-21T12:25:31;101268.72;;;25.25;36.01
49709;BME280;35601;55.902;13.606;2023-08-21T12:27:56;101266.94;;;25.42;36.59
49709;BME280;35601;55.902;13.606;2023-08-21T12:30:22;101260.35;;;25.42;35.69
49709;BME280;35601;55.902;13.606;2023-08-21T12:32:46;101254.68;;;25.62;35.95
49709;BME280;35601;55.902;13.606;2023-08-21T12:35:11;101256.16;;;25.36;35.27
49709;BME280;35601;55.902;13.606;2023-08-21T12:37:36;101257.11;;;25.35;34.91